createdAt,value
2023-05-22T00:01:09.452Z,18.48
2023-05-22T00:03:42.271Z,15.15
2023-05-22T00:06:15.285Z,15.00
2023-05-22T00:08:49.574Z,19.27
2023-05-22T00:11:23.374Z,15.30
2023-05-22T00:13:56.162Z,16.92
2023-05-22T00:16:29.090Z,16.02
2023-05-22T00:19:01.986Z,14.73
2023-05-22T00:21:37.589Z,15.82
2023-05-22T00:24:11.977Z,14.85
2023-05-22T00:26:44.829Z,15.10
2023-05-22T00:29:17.696Z,17.73
2023-05-22T00:31:50.758Z,15.40
2023-05-22T00:34:23.747Z,18.80
2023-05-22T00:36:56.778Z,14.68
2023-05-22T00:39:31.122Z,14.43
2023-05-22T00:42:03.969Z,19.45
2023-05-22T00:44:36.749Z,15.80
2023-05-22T00:47:09.877Z,13.32
2023-05-22T00:49:44.041Z,14.07
2023-05-22T00:52:18.098Z,18.73
2023-05-22T00:54:54.867Z,18.48
2023-05-22T00:57:28.927Z,18.48
2023-05-22T01:00:02.304Z,14.48
2023-05-22T01:02:37.195Z,17.27
2023-05-22T01:05:13.464Z,17.02
2023-05-22T01:07:47.009Z,16.98
2023-05-22T01:10:21.445Z,16.05
2023-05-22T01:13:02.943Z,15.60
2023-05-22T01:15:44.492Z,17.48
2023-05-22T01:18:25.084Z,16.48
2023-05-22T01:21:10.261Z,15.23
2023-05-22T01:24:31.946Z,18.38
2023-05-22T01:27:38.981Z,15.02
2023-05-22T01:30:41.691Z,14.32
2023-05-22T01:33:18.255Z,14.55
2023-05-22T01:35:54.080Z,20.88
2023-05-22T01:38:27.152Z,18.65
2023-05-22T01:41:00.452Z,14.45
2023-05-22T01:43:33.462Z,18.75
2023-05-22T01:46:07.078Z,16.65
2023-05-22T01:48:41.444Z,15.70
2023-05-22T01:51:20.156Z,15.32
2023-05-22T01:53:59.082Z,15.95
2023-05-22T01:56:38.069Z,15.45
2023-05-22T01:59:16.005Z,17.42
2023-05-22T02:01:51.836Z,15.48
2023-05-22T02:04:28.972Z,23.42
2023-05-22T02:07:03.988Z,16.52
2023-05-22T02:09:38.459Z,13.23
2023-05-22T02:12:12.452Z,14.80
2023-05-22T02:14:46.005Z,14.48
2023-05-22T02:17:19.091Z,14.95
2023-05-22T02:19:53.288Z,14.90
2023-05-22T02:22:26.727Z,17.70
2023-05-22T02:24:59.743Z,17.40
2023-05-22T02:27:32.985Z,18.27
2023-05-22T02:30:07.616Z,13.95
2023-05-22T02:32:41.149Z,15.82
2023-05-22T02:35:15.977Z,16.15
2023-05-22T02:37:49.023Z,16.23
2023-05-22T02:40:21.948Z,14.15
2023-05-22T02:42:56.287Z,15.90
2023-05-22T02:45:30.648Z,18.92
2023-05-22T02:48:04.015Z,15.93
2023-05-22T02:50:39.684Z,18.75
2023-05-22T02:53:14.422Z,18.05
2023-05-22T02:55:48.409Z,20.55
2023-05-22T02:58:23.252Z,18.42
2023-05-22T03:00:57.437Z,15.93
2023-05-22T03:03:31.466Z,17.35
2023-05-22T03:06:06.335Z,19.40
2023-05-22T03:08:43.476Z,17.33
2023-05-22T03:11:16.294Z,20.10
2023-05-22T03:13:49.157Z,18.27
2023-05-22T03:16:22.132Z,18.25
2023-05-22T03:19:08.708Z,19.40
2023-05-22T03:21:44.508Z,17.75
2023-05-22T03:24:17.737Z,17.38
2023-05-22T03:26:50.538Z,17.75
2023-05-22T03:29:30.169Z,19.03
2023-05-22T03:32:04.549Z,17.38
2023-05-22T03:34:37.825Z,16.75
2023-05-22T03:37:15.061Z,19.35
2023-05-22T03:39:48.220Z,16.45
2023-05-22T03:42:31.952Z,16.48
2023-05-22T03:45:06.050Z,22.67
2023-05-22T03:47:39.291Z,16.67
2023-05-22T03:50:12.493Z,17.50
2023-05-22T03:52:47.374Z,16.23
2023-05-22T03:55:20.242Z,18.17
2023-05-22T03:57:53.144Z,17.80
2023-05-22T04:00:26.963Z,41.92
2023-05-22T04:03:00.216Z,17.33
2023-05-22T04:05:33.538Z,20.77
2023-05-22T04:08:07.924Z,19.60
2023-05-22T04:10:41.073Z,18.52
2023-05-22T04:13:14.797Z,18.67
2023-05-22T04:15:47.818Z,16.95
2023-05-22T04:18:20.746Z,17.02
2023-05-22T04:20:53.616Z,17.65
2023-05-22T04:23:27.933Z,15.10
2023-05-22T04:26:02.396Z,19.35
2023-05-22T04:28:35.276Z,16.55
2023-05-22T04:31:08.251Z,16.80
2023-05-22T04:33:42.070Z,19.52
2023-05-22T04:36:14.969Z,20.02
2023-05-22T04:38:50.316Z,17.60
2023-05-22T04:41:26.467Z,19.00
2023-05-22T04:44:00.550Z,15.63
2023-05-22T04:46:34.642Z,16.33
2023-05-22T04:49:08.551Z,18.17
2023-05-22T04:51:41.476Z,16.90
2023-05-22T04:54:15.827Z,18.40
2023-05-22T04:56:48.660Z,17.33
2023-05-22T04:59:23.416Z,22.30
2023-05-22T05:01:56.223Z,15.50
2023-05-22T05:04:30.800Z,19.95
2023-05-22T05:07:05.110Z,18.08
2023-05-22T05:09:39.687Z,17.52
2023-05-22T05:12:12.596Z,15.15
2023-05-22T05:14:45.540Z,16.85
2023-05-22T05:17:22.508Z,19.25
2023-05-22T05:19:55.592Z,18.15
2023-05-22T05:22:29.410Z,18.58
2023-05-22T05:25:05.609Z,18.10
2023-05-22T05:27:38.954Z,19.75
2023-05-22T05:30:12.196Z,16.70
2023-05-22T05:33:09.833Z,17.35
2023-05-22T05:35:53.736Z,20.60
2023-05-22T05:38:29.947Z,18.25
2023-05-22T05:41:06.190Z,18.92
2023-05-22T05:43:45.545Z,19.52
2023-05-22T05:46:30.776Z,17.42
2023-05-22T05:49:10.133Z,19.60
2023-05-22T05:51:44.243Z,18.02
2023-05-22T05:54:17.938Z,17.40
2023-05-22T05:56:53.508Z,20.55
2023-05-22T05:59:26.580Z,19.10
2023-05-22T06:02:06.138Z,18.58
2023-05-22T06:04:39.991Z,21.00
2023-05-22T06:07:13.694Z,20.90
2023-05-22T06:09:51.645Z,16.80
2023-05-22T06:12:42.722Z,19.83
2023-05-22T06:15:15.687Z,15.20
2023-05-22T06:17:48.903Z,17.90
2023-05-22T06:20:22.380Z,19.30
2023-05-22T06:22:55.606Z,17.50
2023-05-22T06:25:30.118Z,17.73
2023-05-22T06:28:06.085Z,17.17
2023-05-22T06:30:43.749Z,19.33
2023-05-22T06:33:21.403Z,16.63
2023-05-22T06:35:55.482Z,15.45
2023-05-22T06:38:28.760Z,16.60
2023-05-22T06:41:01.660Z,21.30
2023-05-22T06:43:36.117Z,17.52
2023-05-22T06:46:18.445Z,15.02
2023-05-22T06:48:57.244Z,15.07
2023-05-22T06:51:32.677Z,17.27
2023-05-22T06:54:13.816Z,21.38
2023-05-22T06:56:49.311Z,16.73
2023-05-22T06:59:24.944Z,14.27
2023-05-22T07:02:18.047Z,17.60
2023-05-22T07:05:09.877Z,14.90
2023-05-22T07:07:53.886Z,16.65
2023-05-22T07:10:27.832Z,15.32
2023-05-22T07:13:02.833Z,13.07
2023-05-22T07:15:38.544Z,12.63
2023-05-22T07:18:13.654Z,11.95
2023-05-22T07:20:47.956Z,13.25
2023-05-22T07:23:26.207Z,13.32
2023-05-22T07:25:59.462Z,11.07
2023-05-22T07:28:38.594Z,11.75
2023-05-22T07:31:19.661Z,10.88
2023-05-22T07:33:54.037Z,12.70
2023-05-22T07:36:27.467Z,13.05
2023-05-22T07:39:00.357Z,11.50
2023-05-22T07:41:33.223Z,14.23
2023-05-22T07:44:06.472Z,10.95
2023-05-22T07:46:44.857Z,11.52
2023-05-22T07:49:23.438Z,11.02
2023-05-22T07:51:57.103Z,12.05
2023-05-22T07:54:31.840Z,12.65
2023-05-22T07:57:05.035Z,13.20
2023-05-22T07:59:44.079Z,10.38
2023-05-22T08:02:18.639Z,11.70
2023-05-22T08:04:51.688Z,12.32
2023-05-22T08:07:24.584Z,10.73
2023-05-22T08:09:57.402Z,11.23
2023-05-22T08:12:30.267Z,10.27
2023-05-22T08:15:03.742Z,13.35
2023-05-22T08:17:37.984Z,9.93
2023-05-22T08:20:13.137Z,12.80
2023-05-22T08:22:46.536Z,13.93
2023-05-22T08:25:19.564Z,9.95
2023-05-22T08:27:52.489Z,12.60
2023-05-22T08:30:25.464Z,13.82
2023-05-22T08:32:59.914Z,10.68
2023-05-22T08:35:32.894Z,9.27
2023-05-22T08:38:05.767Z,10.60
2023-05-22T08:40:40.890Z,9.15
2023-05-22T08:43:15.504Z,13.52
2023-05-22T08:45:52.580Z,12.52
2023-05-22T08:48:31.132Z,12.20
2023-05-22T08:51:06.006Z,11.10
2023-05-22T08:53:41.668Z,11.48
2023-05-22T08:56:14.909Z,10.27
2023-05-22T08:58:47.907Z,9.02
2023-05-22T09:01:21.397Z,10.57
2023-05-22T09:03:56.973Z,11.23
2023-05-22T09:06:30.192Z,10.00
2023-05-22T09:09:03.329Z,12.27
2023-05-22T09:11:36.701Z,8.73
2023-05-22T09:14:09.803Z,10.65
2023-05-22T09:16:47.118Z,8.82
2023-05-22T09:19:21.807Z,8.45
2023-05-22T09:22:03.265Z,8.65
2023-05-22T09:24:39.870Z,9.10
2023-05-22T09:27:13.157Z,16.98
2023-05-22T09:29:50.336Z,10.38
2023-05-22T09:32:23.542Z,12.60
2023-05-22T09:35:03.515Z,11.60
2023-05-22T09:37:37.481Z,10.05
2023-05-22T09:40:14.194Z,9.63
2023-05-22T09:42:46.998Z,8.48
2023-05-22T09:45:22.436Z,7.82
2023-05-22T09:47:55.399Z,10.00
2023-05-22T09:50:29.678Z,13.10
2023-05-22T09:53:03.964Z,7.93
2023-05-22T09:55:38.200Z,11.35
2023-05-22T09:58:14.813Z,11.02
2023-05-22T10:00:49.972Z,10.18
2023-05-22T10:03:25.037Z,9.57
2023-05-22T10:06:01.308Z,18.08
2023-05-22T10:08:40.835Z,10.27
2023-05-22T10:11:13.958Z,9.32
2023-05-22T10:13:47.537Z,8.50
2023-05-22T10:16:21.190Z,9.60
2023-05-22T10:18:55.354Z,9.15
2023-05-22T10:21:31.968Z,7.68
2023-05-22T10:24:07.045Z,9.02
2023-05-22T10:26:40.178Z,8.07
2023-05-22T10:29:17.877Z,7.63
2023-05-22T10:34:44.622Z,7.25
2023-05-22T10:37:30.941Z,6.68
2023-05-22T10:40:08.180Z,6.88
2023-05-22T10:42:41.538Z,9.98
2023-05-22T10:45:14.858Z,8.23
2023-05-22T10:47:47.785Z,10.77
2023-05-22T10:50:20.673Z,7.65
2023-05-22T10:53:20.107Z,8.18
2023-05-22T10:55:54.255Z,7.93
2023-05-22T10:58:28.502Z,8.10
2023-05-22T11:01:15.033Z,8.73
2023-05-22T11:03:55.837Z,7.18
2023-05-22T11:06:36.524Z,7.03
2023-05-22T11:09:31.008Z,8.10
2023-05-22T11:12:16.387Z,8.48
2023-05-22T11:14:51.676Z,10.20
2023-05-22T11:17:25.985Z,9.23
2023-05-22T11:20:00.934Z,12.70
2023-05-22T11:22:35.973Z,11.90
2023-05-22T11:25:12.097Z,15.23
2023-05-22T11:27:45.742Z,11.13
2023-05-22T11:30:18.912Z,7.30
2023-05-22T11:32:52.053Z,10.55
2023-05-22T11:35:25.910Z,9.63
2023-05-22T11:37:58.924Z,8.45
2023-05-22T11:40:33.173Z,11.07
2023-05-22T11:43:06.097Z,7.82
2023-05-22T11:45:38.927Z,7.70
2023-05-22T11:48:14.651Z,9.50
2023-05-22T11:50:48.553Z,8.65
2023-05-22T11:53:21.949Z,7.53
2023-05-22T11:55:56.240Z,9.18
2023-05-22T11:58:29.713Z,7.50
2023-05-22T12:01:03.580Z,10.27
2023-05-22T12:03:36.546Z,7.32
2023-05-22T12:06:10.594Z,7.25
2023-05-22T12:08:43.870Z,8.80
2023-05-22T12:11:18.241Z,8.27
2023-05-22T12:14:00.988Z,9.88
2023-05-22T12:16:37.160Z,7.70
2023-05-22T12:19:11.310Z,8.18
2023-05-22T12:21:45.832Z,6.20
2023-05-22T12:24:23.274Z,6.35
2023-05-22T12:26:57.946Z,6.85
2023-05-22T12:29:30.822Z,7.75
2023-05-22T12:32:04.765Z,9.75
2023-05-22T12:34:44.541Z,8.50
2023-05-22T12:37:21.580Z,6.88
2023-05-22T12:39:55.726Z,7.53
2023-05-22T12:42:30.288Z,6.32
2023-05-22T12:45:03.213Z,8.43
2023-05-22T12:47:36.077Z,7.40
2023-05-22T12:50:10.270Z,6.60
2023-05-22T12:52:43.285Z,5.97
2023-05-22T12:55:16.276Z,8.57
2023-05-22T12:57:50.808Z,7.60
2023-05-22T13:00:23.942Z,6.22
2023-05-22T13:02:57.104Z,7.38
2023-05-22T13:05:30.065Z,5.43
2023-05-22T13:08:03.025Z,6.53
2023-05-22T13:10:36.413Z,9.13
2023-05-22T13:13:10.711Z,6.03
2023-05-22T13:15:43.583Z,7.40
2023-05-22T13:18:17.439Z,7.13
2023-05-22T13:20:50.340Z,7.07
2023-05-22T13:23:23.394Z,8.65
2023-05-22T13:25:56.480Z,6.00
2023-05-22T13:28:31.025Z,7.47
2023-05-22T13:31:04.159Z,8.65
2023-05-22T13:33:40.311Z,5.88
2023-05-22T13:36:15.702Z,7.35
2023-05-22T13:38:48.606Z,5.15
2023-05-22T13:41:21.804Z,5.93
2023-05-22T13:43:57.700Z,7.45
2023-05-22T13:46:30.872Z,6.43
2023-05-22T13:49:03.894Z,7.93
2023-05-22T13:51:37.911Z,6.30
2023-05-22T13:54:11.181Z,5.80
2023-05-22T13:56:44.082Z,9.27
2023-05-22T13:59:18.399Z,5.55
2023-05-22T14:01:51.347Z,7.15
2023-05-22T14:04:24.254Z,4.95
2023-05-22T14:06:57.036Z,11.70
2023-05-22T14:09:31.533Z,6.05
2023-05-22T14:12:05.669Z,6.90
2023-05-22T14:14:39.867Z,7.38
2023-05-22T14:17:12.811Z,5.78
2023-05-22T14:19:45.733Z,5.70
2023-05-22T14:22:18.776Z,9.93
2023-05-22T14:24:51.636Z,7.15
2023-05-22T14:27:24.539Z,6.53
2023-05-22T14:29:58.702Z,5.90
2023-05-22T14:32:31.551Z,6.82
2023-05-22T14:35:04.608Z,6.05
2023-05-22T14:37:37.857Z,7.15
2023-05-22T14:40:11.733Z,6.07
2023-05-22T14:42:44.512Z,5.57
2023-05-22T14:45:18.636Z,5.97
2023-05-22T14:47:51.486Z,5.25
2023-05-22T14:50:25.063Z,5.90
2023-05-22T14:52:58.428Z,5.15
2023-05-22T14:55:31.869Z,11.65
2023-05-22T14:58:04.610Z,6.25
2023-05-22T15:00:38.893Z,7.55
2023-05-22T15:03:12.933Z,8.52
2023-05-22T15:05:45.914Z,6.40
2023-05-22T15:08:20.593Z,7.70
2023-05-22T15:10:53.583Z,8.50
2023-05-22T15:13:26.465Z,5.93
2023-05-22T15:16:00.650Z,7.50
2023-05-22T15:18:33.495Z,6.32
2023-05-22T15:21:06.473Z,7.55
2023-05-22T15:23:39.286Z,8.27
2023-05-22T15:26:12.362Z,6.03
2023-05-22T15:28:45.184Z,7.82
2023-05-22T15:31:19.864Z,7.03
2023-05-22T15:33:52.639Z,6.22
2023-05-22T15:36:25.422Z,5.43
2023-05-22T15:38:58.226Z,6.00
2023-05-22T15:41:31.011Z,6.47
2023-05-22T15:44:03.777Z,6.13
2023-05-22T15:46:38.997Z,8.82
2023-05-22T15:49:11.860Z,8.32
2023-05-22T15:51:44.681Z,7.32
2023-05-22T15:54:17.523Z,9.07
2023-05-22T15:56:50.325Z,8.18
2023-05-22T15:59:23.397Z,7.68
2023-05-22T16:01:57.930Z,6.47
2023-05-22T16:04:31.205Z,7.72
2023-05-22T16:07:04.076Z,6.88
2023-05-22T16:09:36.875Z,6.40
2023-05-22T16:12:10.482Z,6.80
2023-05-22T16:14:43.301Z,8.50
2023-05-22T16:17:17.573Z,6.18
2023-05-22T16:20:11.961Z,6.90
2023-05-22T16:22:48.889Z,9.35
2023-05-22T16:26:03.930Z,7.35
2023-05-22T16:28:37.165Z,9.98
2023-05-22T16:31:10.214Z,7.55
2023-05-22T16:33:44.636Z,10.55
2023-05-22T16:36:17.900Z,8.20
2023-05-22T16:38:50.837Z,8.15
2023-05-22T16:41:23.920Z,8.48
2023-05-22T16:43:57.074Z,12.00
2023-05-22T16:46:30.124Z,8.25
2023-05-22T16:49:04.411Z,7.30
2023-05-22T16:51:37.329Z,6.13
2023-05-22T16:54:10.104Z,8.40
2023-05-22T16:56:42.901Z,7.07
2023-05-22T16:59:15.868Z,7.18
2023-05-22T17:01:49.021Z,10.82
2023-05-22T17:04:23.166Z,8.27
2023-05-22T17:06:56.874Z,7.68
2023-05-22T17:09:29.937Z,7.70
2023-05-22T17:12:03.008Z,7.63
2023-05-22T17:14:35.971Z,7.47
2023-05-22T17:17:09.390Z,8.15
2023-05-22T17:19:43.610Z,9.95
2023-05-22T17:22:16.522Z,7.15
2023-05-22T17:24:49.467Z,7.53
2023-05-22T17:27:34.838Z,10.07
2023-05-22T17:30:09.659Z,10.27
2023-05-22T17:32:42.531Z,7.90
2023-05-22T17:35:16.815Z,9.60
2023-05-22T17:37:49.606Z,10.25
2023-05-22T17:40:32.490Z,9.93
2023-05-22T17:43:09.230Z,9.40
2023-05-22T17:45:44.404Z,8.10
2023-05-22T17:48:21.433Z,9.07
2023-05-22T17:50:55.769Z,12.30
2023-05-22T17:53:32.129Z,10.13
2023-05-22T17:56:05.729Z,7.63
2023-05-22T17:58:38.555Z,13.32
2023-05-22T18:01:11.388Z,8.15
2023-05-22T18:03:44.400Z,14.32
2023-05-22T18:06:18.699Z,8.90
2023-05-22T18:08:51.710Z,8.05
2023-05-22T18:11:24.556Z,9.95
2023-05-22T18:13:57.401Z,10.23
2023-05-22T18:16:30.333Z,10.40
2023-05-22T18:19:03.763Z,11.48
2023-05-22T18:21:37.978Z,11.50
2023-05-22T18:24:10.789Z,11.73
2023-05-22T18:26:43.640Z,9.20
2023-05-22T18:29:16.454Z,9.15
2023-05-22T18:31:49.530Z,12.10
2023-05-22T18:34:22.301Z,10.10
2023-05-22T18:36:57.466Z,12.82
2023-05-22T18:39:30.565Z,11.48
2023-05-22T18:42:03.492Z,12.60
2023-05-22T18:44:36.318Z,11.93
2023-05-22T18:47:09.342Z,12.05
2023-05-22T18:49:42.603Z,14.65
2023-05-22T18:52:16.819Z,11.43
2023-05-22T18:54:49.729Z,12.02
2023-05-22T18:57:22.750Z,13.30
2023-05-22T18:59:55.849Z,11.20
2023-05-22T19:02:28.747Z,10.88
2023-05-22T19:05:01.755Z,10.75
2023-05-22T19:07:36.114Z,12.65
2023-05-22T19:10:10.185Z,12.13
2023-05-22T19:12:43.044Z,13.88
2023-05-22T19:15:15.956Z,11.43
2023-05-22T19:17:48.937Z,10.27
2023-05-22T19:20:23.995Z,9.90
2023-05-22T19:22:58.487Z,10.90
2023-05-22T19:25:31.967Z,13.00
2023-05-22T19:28:05.518Z,10.77
2023-05-22T19:30:38.386Z,9.50
2023-05-22T19:33:12.012Z,11.57
2023-05-22T19:35:45.150Z,15.32
2023-05-22T19:38:22.266Z,9.55
2023-05-22T19:40:55.299Z,9.48
2023-05-22T19:43:31.299Z,9.75
2023-05-22T19:46:08.548Z,10.18
2023-05-22T19:48:41.943Z,11.65
2023-05-22T19:51:14.907Z,9.90
2023-05-22T19:53:49.268Z,9.60
2023-05-22T19:56:22.363Z,11.15
2023-05-22T19:58:55.546Z,13.48
2023-05-22T20:01:28.703Z,9.77
2023-05-22T20:04:01.720Z,10.15
2023-05-22T20:06:35.066Z,10.40
2023-05-22T20:09:09.286Z,8.77
2023-05-22T20:11:42.536Z,10.07
2023-05-22T20:14:15.412Z,11.07
2023-05-22T20:16:48.505Z,10.43
2023-05-22T20:19:21.827Z,10.93
2023-05-22T20:21:56.340Z,12.30
2023-05-22T20:24:31.024Z,9.75
2023-05-22T20:27:06.285Z,10.82
2023-05-22T20:29:39.288Z,10.77
2023-05-22T20:32:12.700Z,9.63
2023-05-22T20:34:46.493Z,10.23
2023-05-22T20:37:20.919Z,11.93
2023-05-22T20:39:55.259Z,10.27
2023-05-22T20:42:28.729Z,11.63
2023-05-22T20:45:01.557Z,14.18
2023-05-22T20:47:35.837Z,13.45
2023-05-22T20:50:10.039Z,14.35
2023-05-22T20:52:45.804Z,13.38
2023-05-22T20:55:20.032Z,10.95
2023-05-22T20:57:53.109Z,12.75
2023-05-22T21:00:26.104Z,12.18
2023-05-22T21:03:01.180Z,20.42
2023-05-22T21:05:34.057Z,12.07
2023-05-22T21:08:06.938Z,13.20
2023-05-22T21:10:41.390Z,12.50
2023-05-22T21:13:14.448Z,13.60
2023-05-22T21:15:47.264Z,10.57
2023-05-22T21:18:20.276Z,12.55
2023-05-22T21:20:53.084Z,14.73
2023-05-22T21:23:26.004Z,14.77
2023-05-22T21:26:00.287Z,12.32
2023-05-22T21:28:33.275Z,11.70
2023-05-22T21:31:06.763Z,14.13
2023-05-22T21:33:39.746Z,12.55
2023-05-22T21:36:12.553Z,17.08
2023-05-22T21:38:45.546Z,12.23
2023-05-22T21:41:19.875Z,11.20
2023-05-22T21:43:52.736Z,12.45
2023-05-22T21:46:25.602Z,13.88
2023-05-22T21:48:58.701Z,13.50
2023-05-22T21:51:32.044Z,12.52
2023-05-22T21:54:05.113Z,12.65
2023-05-22T21:56:39.560Z,12.77
2023-05-22T21:59:12.500Z,11.82
2023-05-22T22:01:45.453Z,12.90
2023-05-22T22:04:18.232Z,12.45
2023-05-22T22:06:51.069Z,11.90
2023-05-22T22:09:23.896Z,14.90
2023-05-22T22:11:58.026Z,12.10
2023-05-22T22:14:31.231Z,10.88
2023-05-22T22:17:06.024Z,11.43
2023-05-22T22:19:40.205Z,13.57
2023-05-22T22:22:13.459Z,12.93
2023-05-22T22:24:48.139Z,13.05
2023-05-22T22:27:22.467Z,11.27
2023-05-22T22:29:55.344Z,13.43
2023-05-22T22:32:28.190Z,12.20
2023-05-22T22:35:01.048Z,15.27
2023-05-22T22:37:33.940Z,12.57
2023-05-22T22:40:07.948Z,16.27
2023-05-22T22:42:42.388Z,13.02
2023-05-22T22:45:15.578Z,13.43
2023-05-22T22:47:48.479Z,16.52
2023-05-22T22:50:21.511Z,13.70
2023-05-22T22:52:54.451Z,15.32
2023-05-22T22:55:27.456Z,13.05
2023-05-22T22:58:02.527Z,13.07
2023-05-22T23:00:36.633Z,14.05
2023-05-22T23:03:09.614Z,13.18
2023-05-22T23:05:42.805Z,12.98
2023-05-22T23:08:15.963Z,12.65
2023-05-22T23:10:48.804Z,16.27
2023-05-22T23:13:23.115Z,16.08
2023-05-22T23:15:56.093Z,13.32
2023-05-22T23:18:28.952Z,14.63
2023-05-22T23:21:01.766Z,13.73
2023-05-22T23:23:34.577Z,12.30
2023-05-22T23:26:10.654Z,12.65
2023-05-22T23:28:44.824Z,13.52
2023-05-22T23:31:17.762Z,13.52
2023-05-22T23:33:50.638Z,12.48
2023-05-22T23:36:23.632Z,11.63
2023-05-22T23:38:56.481Z,14.27
2023-05-22T23:41:29.451Z,13.02
2023-05-22T23:44:03.691Z,12.65
2023-05-22T23:46:37.727Z,10.95
2023-05-22T23:49:10.613Z,12.23
2023-05-22T23:51:43.479Z,11.43
2023-05-22T23:54:16.893Z,15.68
2023-05-22T23:56:49.748Z,13.00
2023-05-22T23:59:23.958Z,12.60
